createdAt,value
2023-11-18T00:00:18.562Z,7.50
2023-11-18T00:03:22.487Z,10.87
2023-11-18T00:06:26.294Z,10.60
2023-11-18T00:09:31.314Z,12.03
2023-11-18T00:12:36.250Z,10.63
2023-11-18T00:15:39.914Z,12.17
2023-11-18T00:18:44.013Z,11.53
2023-11-18T00:21:47.685Z,9.37
2023-11-18T00:24:53.431Z,10.13
2023-11-18T00:27:57.062Z,12.63
2023-11-18T00:31:00.902Z,15.10
2023-11-18T00:34:04.653Z,13.57
2023-11-18T00:37:09.288Z,12.50
2023-11-18T00:40:14.450Z,12.80
2023-11-18T00:43:18.173Z,12.23
2023-11-18T00:46:21.798Z,17.37
2023-11-18T00:49:27.214Z,10.37
2023-11-18T00:52:30.909Z,10.63
2023-11-18T00:55:36.068Z,12.10
2023-11-18T00:58:41.515Z,13.87
2023-11-18T01:01:45.564Z,13.00
2023-11-18T01:04:49.358Z,11.83
2023-11-18T01:07:53.056Z,15.13
2023-11-18T01:10:58.100Z,16.70
2023-11-18T01:14:01.937Z,14.27
2023-11-18T01:17:06.641Z,12.40
2023-11-18T01:20:12.108Z,12.33
2023-11-18T01:23:16.025Z,13.50
2023-11-18T01:26:21.660Z,10.40
2023-11-18T01:29:25.568Z,11.30
2023-11-18T01:32:31.019Z,12.43
2023-11-18T01:35:34.768Z,14.73
2023-11-18T01:38:38.818Z,14.97
2023-11-18T01:41:44.264Z,14.93
2023-11-18T01:44:48.603Z,11.83
2023-11-18T01:47:53.220Z,11.73
2023-11-18T01:51:00.368Z,14.00
2023-11-18T01:54:06.635Z,12.20
2023-11-18T01:57:12.311Z,12.40
2023-11-18T02:00:19.108Z,9.60
2023-11-18T02:03:23.769Z,10.13
2023-11-18T02:06:28.114Z,10.43
2023-11-18T02:09:32.337Z,9.57
2023-11-18T02:12:49.799Z,7.23
2023-11-18T02:15:58.294Z,10.10
2023-11-18T02:19:04.138Z,8.40
2023-11-18T02:22:10.576Z,10.40
2023-11-18T02:25:19.286Z,8.33
2023-11-18T02:28:24.853Z,8.07
2023-11-18T02:31:38.741Z,6.63
2023-11-18T02:34:52.725Z,7.53
2023-11-18T02:37:57.863Z,7.57
2023-11-18T02:41:08.139Z,5.67
2023-11-18T02:44:18.617Z,8.40
2023-11-18T02:47:23.103Z,11.03
2023-11-18T02:50:28.548Z,7.07
2023-11-18T02:53:34.482Z,10.80
2023-11-18T02:56:38.149Z,9.60
2023-11-18T02:59:43.236Z,6.90
2023-11-18T03:02:48.267Z,11.47
2023-11-18T03:05:51.979Z,8.00
2023-11-18T03:08:55.658Z,7.60
2023-11-18T03:12:00.660Z,7.93
2023-11-18T03:15:10.362Z,10.60
2023-11-18T03:18:14.131Z,8.67
2023-11-18T03:21:18.001Z,8.03
2023-11-18T03:24:21.879Z,6.57
2023-11-18T03:27:25.744Z,7.83
2023-11-18T03:30:31.168Z,10.27
2023-11-18T03:33:35.929Z,8.20
2023-11-18T03:36:39.614Z,6.97
2023-11-18T03:39:43.357Z,9.33
2023-11-18T03:42:47.658Z,7.60
2023-11-18T03:45:53.521Z,8.97
2023-11-18T03:48:57.247Z,7.73
2023-11-18T03:52:00.930Z,7.97
2023-11-18T03:55:06.276Z,9.77
2023-11-18T03:58:10.342Z,7.60
2023-11-18T04:01:22.857Z,8.43
2023-11-18T04:04:26.538Z,8.63
2023-11-18T04:07:30.944Z,8.00
2023-11-18T04:10:34.615Z,7.03
2023-11-18T04:13:38.370Z,8.80
2023-11-18T04:16:43.447Z,10.80
2023-11-18T04:19:48.134Z,9.93
2023-11-18T04:22:51.940Z,10.23
2023-11-18T04:25:55.737Z,8.93
2023-11-18T04:28:59.574Z,10.43
2023-11-18T04:32:04.788Z,10.50
2023-11-18T04:35:11.220Z,8.57
2023-11-18T04:38:15.062Z,9.93
2023-11-18T04:41:18.631Z,10.17
2023-11-18T04:44:22.532Z,8.23
2023-11-18T04:47:28.213Z,8.23
2023-11-18T04:50:33.198Z,8.87
2023-11-18T04:53:36.836Z,10.23
2023-11-18T04:56:40.490Z,9.23
2023-11-18T04:59:45.056Z,9.57
2023-11-18T05:02:50.650Z,11.27
2023-11-18T05:05:57.741Z,9.87
2023-11-18T05:09:02.542Z,8.47
2023-11-18T05:12:08.062Z,11.90
2023-11-18T05:15:12.085Z,8.63
2023-11-18T05:18:17.991Z,9.47
2023-11-18T05:21:22.812Z,14.10
2023-11-18T05:24:26.546Z,12.33
2023-11-18T05:27:30.448Z,12.57
2023-11-18T05:30:34.307Z,13.50
2023-11-18T05:33:39.373Z,8.93
2023-11-18T05:36:43.088Z,12.70
2023-11-18T05:39:46.751Z,12.77
2023-11-18T05:42:53.130Z,11.53
2023-11-18T05:46:12.730Z,13.97
2023-11-18T05:49:17.784Z,16.80
2023-11-18T05:52:22.167Z,15.43
2023-11-18T05:55:25.950Z,17.00
2023-11-18T05:58:29.981Z,17.30
2023-11-18T06:01:33.771Z,17.43
2023-11-18T06:04:39.523Z,18.17
2023-11-18T06:07:44.577Z,17.63
2023-11-18T06:10:48.364Z,25.23
2023-11-18T06:13:53.936Z,21.20
2023-11-18T06:16:57.729Z,21.43
2023-11-18T06:20:02.866Z,20.70
2023-11-18T06:23:07.944Z,23.07
2023-11-18T06:26:12.368Z,27.57
2023-11-18T06:29:16.821Z,23.40
2023-11-18T06:32:20.579Z,27.90
2023-11-18T06:35:26.149Z,24.87
2023-11-18T06:38:31.616Z,24.40
2023-11-18T06:41:38.067Z,25.83
2023-11-18T06:44:41.794Z,30.10
2023-11-18T06:47:46.731Z,30.23
2023-11-18T06:50:52.169Z,30.63
2023-11-18T06:53:57.315Z,31.47
2023-11-18T06:57:00.980Z,34.27
2023-11-18T07:00:09.620Z,30.70
2023-11-18T07:03:13.440Z,32.47
2023-11-18T07:06:23.856Z,37.53
2023-11-18T07:09:27.642Z,37.40
2023-11-18T07:12:31.360Z,36.73
2023-11-18T07:15:34.972Z,38.03
2023-11-18T07:18:41.624Z,37.67
2023-11-18T07:21:48.051Z,40.03
2023-11-18T07:24:52.687Z,40.03
2023-11-18T07:27:57.315Z,36.97
2023-11-18T07:31:01.286Z,46.10
2023-11-18T07:34:07.145Z,43.37
2023-11-18T07:37:14.078Z,38.33
2023-11-18T07:40:23.628Z,39.77
2023-11-18T07:43:30.007Z,41.43
2023-11-18T07:46:33.688Z,42.53
2023-11-18T07:49:37.691Z,43.27
2023-11-18T07:52:43.033Z,42.50
2023-11-18T07:55:49.045Z,43.67
2023-11-18T07:58:53.835Z,41.97
2023-11-18T08:01:57.958Z,44.97
2023-11-18T08:05:01.744Z,39.73
2023-11-18T08:08:07.137Z,45.80
2023-11-18T08:11:14.339Z,47.70
2023-11-18T08:14:18.688Z,49.60
2023-11-18T08:17:22.477Z,61.20
2023-11-18T08:20:26.809Z,50.60
2023-11-18T08:23:32.856Z,51.37
2023-11-18T08:26:36.972Z,51.27
2023-11-18T08:29:40.543Z,49.37
2023-11-18T08:32:46.125Z,61.87
2023-11-18T08:35:51.894Z,55.23
2023-11-18T08:38:57.730Z,52.67
2023-11-18T08:42:01.394Z,52.73
2023-11-18T08:45:09.551Z,51.20
2023-11-18T08:48:14.114Z,52.97
2023-11-18T08:51:18.788Z,51.23
2023-11-18T08:54:37.451Z,55.17
2023-11-18T08:57:53.900Z,49.57
2023-11-18T09:01:07.624Z,43.43
2023-11-18T09:04:11.772Z,39.43
2023-11-18T09:07:16.424Z,46.97
2023-11-18T09:10:22.360Z,47.13
2023-11-18T09:13:30.019Z,49.03
2023-11-18T09:16:39.650Z,43.60
2023-11-18T09:19:43.245Z,47.63
2023-11-18T09:22:47.094Z,52.80
2023-11-18T09:25:53.419Z,52.87
2023-11-18T09:28:57.814Z,50.37
2023-11-18T09:32:05.690Z,49.77
2023-11-18T09:35:13.663Z,48.07
2023-11-18T09:38:17.743Z,57.27
2023-11-18T09:41:28.498Z,59.20
2023-11-18T09:44:33.481Z,51.37
2023-11-18T09:47:43.299Z,51.67
2023-11-18T09:50:49.973Z,57.77
2023-11-18T09:53:55.816Z,65.53
2023-11-18T09:57:11.103Z,54.63
2023-11-18T10:00:22.687Z,57.23
2023-11-18T10:03:27.243Z,57.33
2023-11-18T10:06:35.170Z,51.37
2023-11-18T10:09:40.673Z,55.37
2023-11-18T10:12:52.965Z,62.17
2023-11-18T10:15:58.744Z,53.40
2023-11-18T10:19:09.917Z,55.63
2023-11-18T10:22:26.540Z,58.23
2023-11-18T10:25:30.799Z,56.17
2023-11-18T10:28:39.032Z,57.57
2023-11-18T10:31:46.546Z,58.93
2023-11-18T10:34:51.792Z,60.60
2023-11-18T10:37:55.538Z,55.50
2023-11-18T10:41:02.222Z,58.60
2023-11-18T10:44:15.997Z,53.00
2023-11-18T10:47:21.819Z,55.63
2023-11-18T10:50:33.159Z,51.10
2023-11-18T10:53:38.534Z,59.03
2023-11-18T10:56:50.328Z,56.40
2023-11-18T11:00:14.678Z,57.20
2023-11-18T11:03:19.634Z,49.53
2023-11-18T11:06:25.432Z,53.80
2023-11-18T11:09:29.791Z,54.83
2023-11-18T11:12:53.216Z,57.73
2023-11-18T11:16:03.182Z,56.37
2023-11-18T11:19:10.145Z,54.57
2023-11-18T11:22:22.158Z,57.93
2023-11-18T11:25:36.549Z,54.90
2023-11-18T11:28:47.950Z,49.47
2023-11-18T11:32:13.805Z,53.90
2023-11-18T11:35:26.160Z,50.17
2023-11-18T11:38:30.253Z,52.60
2023-11-18T11:41:35.583Z,49.93
2023-11-18T11:44:43.655Z,48.23
2023-11-18T11:47:52.453Z,42.57
2023-11-18T11:51:16.254Z,43.73
2023-11-18T11:54:30.242Z,46.97
2023-11-18T11:57:40.294Z,56.37
2023-11-18T12:00:44.537Z,49.10
2023-11-18T12:03:51.132Z,48.47
2023-11-18T12:07:05.824Z,47.60
2023-11-18T12:10:22.173Z,48.10
2023-11-18T12:13:27.669Z,40.13
2023-11-18T12:17:08.753Z,36.30
2023-11-18T12:20:43.466Z,46.03
2023-11-18T12:24:20.413Z,43.87
2023-11-18T12:27:52.729Z,34.00
2023-11-18T12:31:07.441Z,43.20
2023-11-18T12:34:12.245Z,42.80
2023-11-18T12:37:55.262Z,34.63
2023-11-18T12:41:01.200Z,41.43
2023-11-18T12:44:33.002Z,36.70
2023-11-18T12:47:42.468Z,43.73
2023-11-18T12:50:48.243Z,37.20
2023-11-18T12:53:54.975Z,36.77
2023-11-18T12:56:59.101Z,39.47
2023-11-18T13:00:05.643Z,37.60
2023-11-18T13:03:11.958Z,35.53
2023-11-18T13:06:16.260Z,39.10
2023-11-18T13:09:27.569Z,33.30
2023-11-18T13:12:31.453Z,41.17
2023-11-18T13:15:38.667Z,34.90
2023-11-18T13:18:50.357Z,35.03
2023-11-18T13:21:56.021Z,35.07
2023-11-18T13:25:01.132Z,37.93
2023-11-18T13:28:07.458Z,36.20
2023-11-18T13:31:11.458Z,33.13
2023-11-18T13:34:15.311Z,43.00
2023-11-18T13:37:23.782Z,35.53
2023-11-18T13:40:31.124Z,34.93
2023-11-18T13:43:45.292Z,31.77
2023-11-18T13:46:51.240Z,38.13
2023-11-18T13:49:59.705Z,40.50
2023-11-18T13:53:04.548Z,37.80
2023-11-18T13:56:11.114Z,35.70
2023-11-18T13:59:15.550Z,37.00
2023-11-18T14:02:20.158Z,37.13
2023-11-18T14:05:25.742Z,36.80
2023-11-18T14:08:29.511Z,35.27
2023-11-18T14:11:35.744Z,42.67
2023-11-18T14:14:39.604Z,45.97
2023-11-18T14:17:46.132Z,37.13
2023-11-18T14:20:51.253Z,29.30
2023-11-18T14:23:57.381Z,32.67
2023-11-18T14:27:02.435Z,36.40
2023-11-18T14:30:09.472Z,26.93
2023-11-18T14:33:13.233Z,31.40
2023-11-18T14:36:17.128Z,38.97
2023-11-18T14:39:24.090Z,34.30
2023-11-18T14:42:29.355Z,30.77
2023-11-18T14:45:50.087Z,28.00
2023-11-18T14:48:53.821Z,30.93
2023-11-18T14:51:57.949Z,29.43
2023-11-18T14:55:01.945Z,26.63
2023-11-18T14:58:08.254Z,22.57
2023-11-18T15:01:13.496Z,23.30
2023-11-18T15:04:17.249Z,24.67
2023-11-18T15:07:20.867Z,18.40
2023-11-18T15:10:26.768Z,24.30
2023-11-18T15:13:31.741Z,22.10
2023-11-18T15:16:35.513Z,20.17
2023-11-18T15:19:39.569Z,17.73
2023-11-18T15:22:45.491Z,19.90
2023-11-18T15:25:51.185Z,18.20
2023-11-18T15:28:58.147Z,21.17
2023-11-18T15:32:01.933Z,16.17
2023-11-18T15:35:09.957Z,16.07
2023-11-18T15:38:18.797Z,15.43
2023-11-18T15:41:23.624Z,16.43
2023-11-18T15:44:29.705Z,20.17
2023-11-18T15:47:33.525Z,21.30
2023-11-18T15:50:39.122Z,11.93
2023-11-18T15:53:42.908Z,21.03
2023-11-18T15:56:47.003Z,18.00
2023-11-18T15:59:52.140Z,15.27
2023-11-18T16:03:01.876Z,14.87
2023-11-18T16:06:07.972Z,17.17
2023-11-18T16:09:11.667Z,18.33
2023-11-18T16:12:15.748Z,18.47
2023-11-18T16:15:21.863Z,15.27
2023-11-18T16:18:25.611Z,17.73
2023-11-18T16:21:29.332Z,15.70
2023-11-18T16:24:33.002Z,16.33
2023-11-18T16:27:36.714Z,14.67
2023-11-18T16:30:41.804Z,15.53
2023-11-18T16:33:46.659Z,18.27
2023-11-18T16:36:50.726Z,16.47
2023-11-18T16:39:55.000Z,18.47
2023-11-18T16:43:01.255Z,14.67
2023-11-18T16:46:07.609Z,15.27
2023-11-18T16:49:13.674Z,16.97
2023-11-18T16:52:17.743Z,12.97
2023-11-18T16:55:22.506Z,13.47
2023-11-18T16:58:26.489Z,17.13
2023-11-18T17:01:31.685Z,21.70
2023-11-18T17:04:38.205Z,16.27
2023-11-18T17:07:42.268Z,18.17
2023-11-18T17:10:52.997Z,19.17
2023-11-18T17:13:56.671Z,26.23
2023-11-18T17:17:02.086Z,15.10
2023-11-18T17:20:10.662Z,15.13
2023-11-18T17:23:14.403Z,16.43
2023-11-18T17:26:18.226Z,14.03
2023-11-18T17:29:22.145Z,17.20
2023-11-18T17:32:27.497Z,14.23
2023-11-18T17:35:31.863Z,13.97
2023-11-18T17:38:37.038Z,19.53
2023-11-18T17:41:40.651Z,37.87
2023-11-18T17:44:44.386Z,22.70
2023-11-18T17:47:49.567Z,16.87
2023-11-18T17:50:54.803Z,14.73
2023-11-18T17:53:58.529Z,12.43
2023-11-18T17:57:02.250Z,14.80
2023-11-18T18:00:13.204Z,15.00
2023-11-18T18:03:18.621Z,14.10
2023-11-18T18:06:22.395Z,13.87
2023-11-18T18:09:28.679Z,13.33
2023-11-18T18:12:33.245Z,13.57
2023-11-18T18:15:39.444Z,13.70
2023-11-18T18:18:44.562Z,15.07
2023-11-18T18:21:48.245Z,12.43
2023-11-18T18:24:51.883Z,11.23
2023-11-18T18:27:55.554Z,11.37
2023-11-18T18:30:59.285Z,14.47
2023-11-18T18:34:04.804Z,12.83
2023-11-18T18:37:08.900Z,14.93
2023-11-18T18:40:15.771Z,20.77
2023-11-18T18:43:19.433Z,14.93
2023-11-18T18:46:23.103Z,12.17
2023-11-18T18:49:28.653Z,16.83
2023-11-18T18:52:32.389Z,11.83
2023-11-18T18:55:37.212Z,12.13
2023-11-18T18:58:41.057Z,13.83
2023-11-18T19:01:46.115Z,13.63
2023-11-18T19:04:51.396Z,11.73
2023-11-18T19:07:57.127Z,16.87
2023-11-18T19:11:01.159Z,17.00
2023-11-18T19:14:05.038Z,12.87
2023-11-18T19:17:08.820Z,14.07
2023-11-18T19:20:15.814Z,13.13
2023-11-18T19:23:19.916Z,11.33
2023-11-18T19:26:23.542Z,13.07
2023-11-18T19:29:27.396Z,11.83
2023-11-18T19:32:31.267Z,14.40
2023-11-18T19:35:36.376Z,13.33
2023-11-18T19:38:40.131Z,17.20
2023-11-18T19:41:43.896Z,14.20
2023-11-18T19:44:48.274Z,14.93
2023-11-18T19:47:52.647Z,19.33
2023-11-18T19:50:57.659Z,11.80
2023-11-18T19:54:01.337Z,12.97
2023-11-18T19:57:05.168Z,15.33
2023-11-18T20:00:13.036Z,11.40
2023-11-18T20:03:16.903Z,14.23
2023-11-18T20:06:22.067Z,13.07
2023-11-18T20:09:26.767Z,19.60
2023-11-18T20:12:33.208Z,13.63
2023-11-18T20:15:38.598Z,13.23
2023-11-18T20:18:42.326Z,12.10
2023-11-18T20:21:47.478Z,13.10
2023-11-18T20:24:51.131Z,13.03
2023-11-18T20:27:55.678Z,13.33
2023-11-18T20:30:59.363Z,14.03
2023-11-18T20:34:03.958Z,13.60
2023-11-18T20:37:08.941Z,11.67
2023-11-18T20:40:15.018Z,10.10
2023-11-18T20:43:18.725Z,14.70
2023-11-18T20:46:22.407Z,13.93
2023-11-18T20:49:26.223Z,10.70
2023-11-18T20:52:33.380Z,12.13
2023-11-18T20:55:37.081Z,10.80
2023-11-18T20:58:42.542Z,10.93
2023-11-18T21:01:47.380Z,12.10
2023-11-18T21:04:51.208Z,12.17
2023-11-18T21:07:56.553Z,9.80
2023-11-18T21:11:00.411Z,10.40
2023-11-18T21:14:05.534Z,13.60
2023-11-18T21:17:12.572Z,9.43
2023-11-18T21:20:16.474Z,10.03
2023-11-18T21:23:21.578Z,7.60
2023-11-18T21:26:26.396Z,13.63
2023-11-18T21:29:30.513Z,8.77
2023-11-18T21:32:34.229Z,7.67
2023-11-18T21:35:37.893Z,13.23
2023-11-18T21:38:43.094Z,6.77
2023-11-18T21:41:46.927Z,7.97
2023-11-18T21:44:50.896Z,8.20
2023-11-18T21:47:56.305Z,7.00
2023-11-18T21:51:00.238Z,6.70
2023-11-18T21:54:05.954Z,7.30
2023-11-18T21:57:10.646Z,6.13
2023-11-18T22:00:18.153Z,6.60
2023-11-18T22:03:22.069Z,3.83
2023-11-18T22:06:25.805Z,6.90
2023-11-18T22:09:30.961Z,6.60
2023-11-18T22:12:34.865Z,4.57
2023-11-18T22:15:38.627Z,3.60
2023-11-18T22:18:42.389Z,6.43
2023-11-18T22:21:46.536Z,4.67
2023-11-18T22:24:53.171Z,3.37
2023-11-18T22:27:56.876Z,4.63
2023-11-18T22:31:00.726Z,4.03
2023-11-18T22:34:04.781Z,6.73
2023-11-18T22:37:08.412Z,3.30
2023-11-18T22:40:17.428Z,2.27
2023-11-18T22:43:22.430Z,2.90
2023-11-18T22:46:26.169Z,11.87
2023-11-18T22:49:30.048Z,3.13
2023-11-18T22:52:33.643Z,3.57
2023-11-18T22:55:39.613Z,4.53
2023-11-18T22:58:43.387Z,3.10
2023-11-18T23:01:47.353Z,3.37
2023-11-18T23:04:50.963Z,3.43
2023-11-18T23:07:57.793Z,3.13
2023-11-18T23:11:03.102Z,3.50
2023-11-18T23:14:06.962Z,2.73
2023-11-18T23:17:10.644Z,4.20
2023-11-18T23:20:14.554Z,2.90
2023-11-18T23:23:19.234Z,3.20
2023-11-18T23:26:24.466Z,4.33
2023-11-18T23:29:28.212Z,2.80
2023-11-18T23:32:31.824Z,4.67
2023-11-18T23:35:36.241Z,3.03
2023-11-18T23:38:40.183Z,2.43
2023-11-18T23:41:45.208Z,2.93
2023-11-18T23:44:48.955Z,2.27
2023-11-18T23:47:52.990Z,2.40
2023-11-18T23:50:57.031Z,4.27
2023-11-18T23:54:00.665Z,2.73
2023-11-18T23:57:06.283Z,2.60
